createdAt,value
2023-01-05T00:01:41.109Z,12.59
2023-01-05T00:04:08.984Z,12.93
2023-01-05T00:06:37.385Z,12.74
2023-01-05T00:09:04.694Z,12.31
2023-01-05T00:11:50.872Z,12.77
2023-01-05T00:14:38.310Z,12.46
2023-01-05T00:17:25.093Z,12.59
2023-01-05T00:20:10.753Z,12.93
2023-01-05T00:22:42.120Z,12.55
2023-01-05T00:25:12.411Z,12.52
2023-01-05T00:27:41.629Z,12.71
2023-01-05T00:30:10.099Z,12.92
2023-01-05T00:32:37.238Z,12.90
2023-01-05T00:35:05.203Z,12.93
2023-01-05T00:37:34.099Z,12.89
2023-01-05T00:40:01.391Z,13.05
2023-01-05T00:42:28.932Z,13.10
2023-01-05T00:44:56.129Z,12.44
2023-01-05T00:47:23.419Z,12.94
2023-01-05T00:49:50.956Z,13.10
2023-01-05T00:52:18.117Z,13.03
2023-01-05T00:54:45.365Z,12.91
2023-01-05T00:57:13.544Z,13.18
2023-01-05T00:59:40.799Z,12.33
2023-01-05T01:02:08.153Z,13.17
2023-01-05T01:04:35.965Z,12.95
2023-01-05T01:07:04.181Z,12.56
2023-01-05T01:09:31.449Z,13.21
2023-01-05T01:11:58.894Z,12.44
2023-01-05T01:14:26.203Z,12.98
2023-01-05T01:16:53.557Z,13.21
2023-01-05T01:19:22.017Z,13.02
2023-01-05T01:21:49.524Z,13.03
2023-01-05T01:24:18.490Z,12.96
2023-01-05T01:26:46.118Z,13.02
2023-01-05T01:29:13.627Z,13.13
2023-01-05T01:31:41.147Z,12.53
2023-01-05T01:34:08.693Z,12.73
2023-01-05T01:36:36.087Z,12.92
2023-01-05T01:39:03.293Z,12.85
2023-01-05T01:41:32.473Z,13.01
2023-01-05T01:43:59.876Z,12.98
2023-01-05T01:46:27.679Z,13.03
2023-01-05T01:48:59.282Z,13.08
2023-01-05T01:51:30.997Z,13.16
2023-01-05T01:53:58.874Z,13.00
2023-01-05T01:56:26.838Z,13.13
2023-01-05T01:58:54.395Z,13.08
2023-01-05T02:01:21.979Z,13.19
2023-01-05T02:03:49.616Z,12.92
2023-01-05T02:06:17.743Z,12.57
2023-01-05T02:08:44.948Z,12.93
2023-01-05T02:11:31.651Z,13.22
2023-01-05T02:14:05.316Z,12.93
2023-01-05T02:16:43.467Z,13.16
2023-01-05T02:19:13.477Z,13.24
2023-01-05T02:21:47.518Z,12.90
2023-01-05T02:24:18.062Z,13.15
2023-01-05T02:26:45.347Z,13.29
2023-01-05T02:29:24.570Z,13.24
2023-01-05T02:31:58.259Z,13.37
2023-01-05T02:34:30.825Z,13.43
2023-01-05T02:36:58.307Z,13.25
2023-01-05T02:39:29.580Z,13.23
2023-01-05T02:42:04.132Z,13.41
2023-01-05T02:44:32.593Z,13.33
2023-01-05T02:47:04.388Z,13.42
2023-01-05T02:49:32.893Z,13.47
2023-01-05T02:52:01.087Z,13.48
2023-01-05T02:54:30.443Z,12.76
2023-01-05T02:57:03.872Z,13.16
2023-01-05T02:59:34.840Z,13.14
2023-01-05T03:02:07.052Z,13.25
2023-01-05T03:04:39.865Z,13.21
2023-01-05T03:07:08.668Z,13.34
2023-01-05T03:09:38.930Z,13.31
2023-01-05T03:12:28.903Z,13.27
2023-01-05T03:14:56.041Z,13.21
2023-01-05T03:17:44.484Z,13.24
2023-01-05T03:20:13.574Z,13.16
2023-01-05T03:22:59.778Z,13.16
2023-01-05T03:25:45.683Z,13.30
2023-01-05T03:28:34.016Z,13.38
2023-01-05T03:31:26.599Z,12.86
2023-01-05T03:34:30.702Z,13.08
2023-01-05T03:37:21.375Z,13.04
2023-01-05T03:39:48.917Z,13.11
2023-01-05T03:42:16.099Z,13.23
2023-01-05T03:44:46.489Z,12.90
2023-01-05T03:47:14.620Z,11.63
2023-01-05T03:49:43.455Z,11.85
2023-01-05T03:52:10.833Z,12.20
2023-01-05T03:54:40.331Z,12.01
2023-01-05T03:57:07.878Z,11.89
2023-01-05T03:59:35.269Z,12.16
2023-01-05T04:02:04.832Z,12.50
2023-01-05T04:04:32.470Z,12.15
2023-01-05T04:06:59.812Z,12.67
2023-01-05T04:09:29.726Z,12.93
2023-01-05T04:11:57.854Z,13.03
2023-01-05T04:14:25.648Z,12.87
2023-01-05T04:16:53.580Z,12.57
2023-01-05T04:19:21.491Z,12.59
2023-01-05T04:21:50.687Z,12.55
2023-01-05T04:24:18.152Z,12.91
2023-01-05T04:26:46.028Z,13.00
2023-01-05T04:29:13.285Z,13.01
2023-01-05T04:31:40.971Z,13.07
2023-01-05T04:34:08.508Z,13.02
2023-01-05T04:36:36.423Z,12.91
2023-01-05T04:39:04.499Z,13.14
2023-01-05T04:41:32.797Z,13.01
2023-01-05T04:44:00.117Z,12.94
2023-01-05T04:46:28.473Z,12.71
2023-01-05T04:48:56.080Z,12.95
2023-01-05T04:51:24.300Z,13.09
2023-01-05T04:53:51.508Z,12.93
2023-01-05T04:56:19.378Z,12.94
2023-01-05T04:58:48.373Z,12.84
2023-01-05T05:01:15.855Z,13.09
2023-01-05T05:03:43.820Z,13.27
2023-01-05T05:06:11.312Z,13.11
2023-01-05T05:08:38.666Z,13.24
2023-01-05T05:11:06.178Z,13.39
2023-01-05T05:13:33.520Z,13.46
2023-01-05T05:16:01.086Z,13.21
2023-01-05T05:18:29.093Z,13.39
2023-01-05T05:20:56.385Z,13.47
2023-01-05T05:23:24.266Z,13.37
2023-01-05T05:25:52.791Z,13.05
2023-01-05T05:28:20.293Z,12.88
2023-01-05T05:30:48.741Z,12.61
2023-01-05T05:33:16.382Z,11.85
2023-01-05T05:35:43.596Z,11.99
2023-01-05T05:38:10.818Z,11.84
2023-01-05T05:40:38.252Z,11.84
2023-01-05T05:43:05.432Z,11.97
2023-01-05T05:45:32.796Z,12.60
2023-01-05T05:48:01.335Z,12.65
2023-01-05T05:50:28.618Z,12.59
2023-01-05T05:52:56.002Z,12.50
2023-01-05T05:55:23.490Z,12.67
2023-01-05T05:57:50.707Z,12.67
2023-01-05T06:00:17.931Z,12.29
2023-01-05T06:02:45.628Z,12.42
2023-01-05T06:05:12.936Z,12.65
2023-01-05T06:07:40.184Z,12.70
2023-01-05T06:10:07.907Z,12.71
2023-01-05T06:12:35.093Z,12.94
2023-01-05T06:15:02.597Z,12.96
2023-01-05T06:17:30.007Z,12.66
2023-01-05T06:19:57.165Z,12.70
2023-01-05T06:22:24.353Z,12.51
2023-01-05T06:24:51.816Z,12.76
2023-01-05T06:27:19.093Z,12.91
2023-01-05T06:29:46.317Z,12.92
2023-01-05T06:32:13.859Z,12.88
2023-01-05T06:34:41.130Z,12.82
2023-01-05T06:37:08.273Z,12.88
2023-01-05T06:39:35.801Z,12.86
2023-01-05T06:42:02.997Z,12.94
2023-01-05T06:44:30.198Z,12.19
2023-01-05T06:46:57.690Z,12.53
2023-01-05T06:49:24.872Z,12.69
2023-01-05T06:51:52.094Z,12.58
2023-01-05T06:54:19.554Z,12.42
2023-01-05T06:56:46.828Z,12.78
2023-01-05T06:59:14.127Z,12.87
2023-01-05T07:01:41.710Z,12.90
2023-01-05T07:04:08.987Z,12.78
2023-01-05T07:06:36.401Z,12.44
2023-01-05T07:09:03.916Z,12.85
2023-01-05T07:11:31.082Z,13.07
2023-01-05T07:13:58.335Z,12.80
2023-01-05T07:16:25.838Z,12.62
2023-01-05T07:18:53.210Z,12.93
2023-01-05T07:21:20.429Z,12.63
2023-01-05T07:23:47.928Z,12.80
2023-01-05T07:26:15.083Z,12.64
2023-01-05T07:28:42.307Z,12.63
2023-01-05T07:31:09.846Z,10.94
2023-01-05T07:33:39.911Z,11.92
2023-01-05T07:36:07.947Z,12.28
2023-01-05T07:38:35.484Z,12.50
2023-01-05T07:41:02.796Z,11.62
2023-01-05T07:43:30.148Z,12.05
2023-01-05T07:45:58.334Z,12.52
2023-01-05T07:48:25.656Z,12.59
2023-01-05T07:50:52.812Z,12.71
2023-01-05T07:53:20.351Z,12.49
2023-01-05T07:55:55.038Z,12.75
2023-01-05T07:58:22.578Z,12.85
2023-01-05T08:00:50.490Z,12.95
2023-01-05T08:03:18.404Z,12.48
2023-01-05T08:05:46.071Z,12.59
2023-01-05T08:08:16.608Z,12.77
2023-01-05T08:10:46.760Z,12.81
2023-01-05T08:13:32.351Z,12.94
2023-01-05T08:16:00.365Z,13.05
2023-01-05T08:18:28.063Z,13.36
2023-01-05T08:20:59.160Z,13.21
2023-01-05T08:23:29.426Z,13.13
2023-01-05T08:25:56.961Z,13.21
2023-01-05T08:28:28.540Z,13.49
2023-01-05T08:31:01.339Z,13.58
2023-01-05T08:33:28.928Z,13.63
2023-01-05T08:35:56.066Z,13.40
2023-01-05T08:38:23.711Z,13.66
2023-01-05T08:40:50.958Z,13.63
2023-01-05T08:43:18.145Z,13.44
2023-01-05T08:45:49.016Z,13.49
2023-01-05T08:48:16.264Z,13.41
2023-01-05T08:50:43.451Z,13.59
2023-01-05T08:53:10.928Z,13.48
2023-01-05T08:55:38.139Z,13.59
2023-01-05T08:58:06.536Z,12.87
2023-01-05T09:00:34.042Z,12.96
2023-01-05T09:03:01.313Z,12.83
2023-01-05T09:05:28.661Z,12.44
2023-01-05T09:07:56.300Z,12.05
2023-01-05T09:10:23.457Z,12.09
2023-01-05T09:12:50.728Z,12.27
2023-01-05T09:15:18.221Z,12.40
2023-01-05T09:17:45.474Z,12.34
2023-01-05T09:20:12.698Z,12.32
2023-01-05T09:22:40.182Z,12.65
2023-01-05T09:25:07.511Z,13.03
2023-01-05T09:27:34.658Z,13.04
2023-01-05T09:30:02.605Z,13.45
2023-01-05T09:32:29.767Z,13.24
2023-01-05T09:34:57.017Z,13.22
2023-01-05T09:37:24.443Z,13.40
2023-01-05T09:39:51.595Z,13.82
2023-01-05T09:42:19.717Z,14.25
2023-01-05T09:44:56.922Z,14.13
2023-01-05T09:47:25.889Z,14.20
2023-01-05T09:49:53.369Z,13.34
2023-01-05T09:52:21.466Z,13.07
2023-01-05T09:54:48.665Z,13.07
2023-01-05T09:57:26.863Z,12.83
2023-01-05T09:59:55.193Z,13.02
2023-01-05T10:02:22.708Z,13.20
2023-01-05T10:04:50.263Z,13.24
2023-01-05T10:07:24.184Z,13.52
2023-01-05T10:09:51.761Z,13.69
2023-01-05T10:12:39.699Z,13.89
2023-01-05T10:15:08.783Z,14.02
2023-01-05T10:17:42.451Z,14.09
2023-01-05T10:20:11.026Z,13.54
2023-01-05T10:23:04.275Z,13.51
2023-01-05T10:25:35.039Z,13.17
2023-01-05T10:28:22.521Z,13.41
2023-01-05T10:30:52.750Z,13.53
2023-01-05T10:33:45.709Z,13.40
2023-01-05T10:36:49.195Z,13.25
2023-01-05T10:39:16.068Z,13.07
2023-01-05T10:41:49.312Z,12.97
2023-01-05T10:44:55.079Z,12.83
2023-01-05T10:47:23.203Z,12.95
2023-01-05T10:49:51.408Z,12.54
2023-01-05T10:52:19.367Z,12.61
2023-01-05T10:54:59.830Z,13.07
2023-01-05T10:57:35.425Z,13.31
2023-01-05T11:00:30.015Z,12.96
2023-01-05T11:03:03.524Z,12.67
2023-01-05T11:05:38.296Z,12.15
2023-01-05T11:08:25.751Z,11.92
2023-01-05T11:10:57.636Z,12.17
2023-01-05T11:13:27.603Z,12.75
2023-01-05T11:15:56.499Z,13.02
2023-01-05T11:18:29.312Z,12.78
2023-01-05T11:21:06.202Z,13.40
2023-01-05T11:23:43.739Z,13.67
2023-01-05T11:26:23.549Z,13.94
2023-01-05T11:28:59.695Z,14.05
2023-01-05T11:31:28.449Z,14.04
2023-01-05T11:33:56.335Z,14.07
2023-01-05T11:36:23.498Z,14.02
2023-01-05T11:38:51.884Z,13.59
2023-01-05T11:41:19.051Z,13.87
2023-01-05T11:43:46.722Z,12.68
2023-01-05T11:46:15.909Z,13.01
2023-01-05T11:48:49.540Z,12.74
2023-01-05T11:51:46.521Z,12.99
2023-01-05T11:54:32.886Z,13.35
2023-01-05T11:57:27.045Z,13.61
2023-01-05T11:59:56.059Z,13.48
2023-01-05T12:02:29.943Z,13.34
2023-01-05T12:05:06.420Z,12.69
2023-01-05T12:07:34.822Z,13.12
2023-01-05T12:10:02.228Z,12.74
2023-01-05T12:12:48.511Z,12.74
2023-01-05T12:15:15.952Z,12.84
2023-01-05T12:18:02.107Z,12.60
2023-01-05T12:20:29.614Z,12.09
2023-01-05T12:22:56.795Z,11.62
2023-01-05T12:25:36.000Z,11.80
2023-01-05T12:28:09.544Z,11.84
2023-01-05T12:34:04.978Z,11.37
2023-01-05T12:36:40.253Z,11.55
2023-01-05T12:39:23.718Z,11.47
2023-01-05T12:41:54.063Z,11.50
2023-01-05T12:44:27.293Z,11.56
2023-01-05T12:46:54.493Z,11.36
2023-01-05T12:49:24.669Z,11.49
2023-01-05T12:51:59.800Z,11.59
2023-01-05T12:54:32.030Z,11.67
2023-01-05T12:57:07.811Z,11.53
2023-01-05T12:59:38.173Z,11.59
2023-01-05T13:02:08.460Z,11.80
2023-01-05T13:04:46.727Z,11.88
2023-01-05T13:07:20.436Z,11.39
2023-01-05T13:09:48.208Z,11.59
2023-01-05T13:12:15.454Z,11.53
2023-01-05T13:14:52.783Z,11.36
2023-01-05T13:17:24.667Z,11.35
2023-01-05T13:19:54.479Z,11.60
2023-01-05T13:22:23.035Z,11.58
2023-01-05T13:24:50.348Z,11.31
2023-01-05T13:27:17.685Z,10.99
2023-01-05T13:29:48.951Z,11.00
2023-01-05T13:32:25.270Z,11.18
2023-01-05T13:34:56.015Z,11.19
2023-01-05T13:37:26.240Z,11.15
2023-01-05T13:39:53.753Z,11.29
2023-01-05T13:42:30.195Z,11.43
2023-01-05T13:44:57.792Z,11.66
2023-01-05T13:47:28.471Z,11.52
2023-01-05T13:49:59.633Z,11.49
2023-01-05T13:52:37.856Z,11.67
2023-01-05T13:55:07.761Z,11.53
2023-01-05T13:57:40.069Z,11.28
2023-01-05T14:00:11.237Z,11.54
2023-01-05T14:02:40.752Z,11.57
2023-01-05T14:05:15.339Z,11.87
2023-01-05T14:07:42.844Z,11.86
2023-01-05T14:10:19.377Z,11.93
2023-01-05T14:12:50.567Z,11.76
2023-01-05T14:15:20.860Z,11.45
2023-01-05T14:17:54.269Z,11.83
2023-01-05T14:20:33.783Z,11.62
2023-01-05T14:23:02.072Z,11.45
2023-01-05T14:25:38.645Z,11.42
2023-01-05T14:28:21.561Z,11.39
2023-01-05T14:30:49.481Z,11.30
2023-01-05T14:33:17.937Z,11.57
2023-01-05T14:35:45.267Z,11.51
2023-01-05T14:38:17.011Z,11.65
2023-01-05T14:40:45.409Z,11.54
2023-01-05T14:43:31.769Z,11.51
2023-01-05T14:46:09.797Z,11.30
2023-01-05T14:48:43.397Z,11.30
2023-01-05T14:51:10.866Z,11.64
2023-01-05T14:53:43.232Z,11.57
2023-01-05T14:56:24.815Z,11.64
2023-01-05T14:58:55.838Z,11.67
2023-01-05T15:01:25.372Z,11.27
2023-01-05T15:04:09.145Z,10.83
2023-01-05T15:07:02.929Z,11.16
2023-01-05T15:09:33.273Z,11.13
2023-01-05T15:12:10.069Z,11.60
2023-01-05T15:14:56.206Z,11.31
2023-01-05T15:17:45.400Z,11.19
2023-01-05T15:20:21.985Z,10.96
2023-01-05T15:22:54.496Z,10.69
2023-01-05T15:25:40.875Z,11.48
2023-01-05T15:28:25.029Z,11.29
2023-01-05T15:31:01.551Z,11.28
2023-01-05T15:33:32.635Z,11.68
2023-01-05T15:36:04.226Z,11.12
2023-01-05T15:38:32.208Z,11.45
2023-01-05T15:41:00.929Z,11.50
2023-01-05T15:43:28.292Z,11.30
2023-01-05T15:45:55.826Z,11.51
2023-01-05T15:48:41.899Z,11.62
2023-01-05T15:51:11.563Z,11.52
2023-01-05T15:53:44.334Z,11.29
2023-01-05T15:56:26.344Z,11.10
2023-01-05T15:58:53.542Z,11.24
2023-01-05T16:01:21.146Z,11.33
2023-01-05T16:03:48.822Z,11.43
2023-01-05T16:06:20.457Z,11.51
2023-01-05T16:08:50.059Z,11.61
2023-01-05T16:11:27.948Z,11.77
2023-01-05T16:14:02.913Z,11.86
2023-01-05T16:16:51.858Z,11.80
2023-01-05T16:19:25.193Z,11.36
2023-01-05T16:21:58.256Z,12.00
2023-01-05T16:24:34.831Z,12.09
2023-01-05T16:27:03.282Z,12.07
2023-01-05T16:29:33.535Z,12.57
2023-01-05T16:32:01.789Z,12.56
2023-01-05T16:34:31.403Z,12.26
2023-01-05T16:37:02.485Z,12.49
2023-01-05T16:39:35.537Z,12.62
2023-01-05T16:42:41.027Z,12.45
2023-01-05T16:45:10.096Z,12.43
2023-01-05T16:47:38.593Z,12.56
2023-01-05T16:50:17.870Z,12.63
2023-01-05T16:52:58.451Z,12.77
2023-01-05T16:55:29.443Z,12.06
2023-01-05T16:57:57.890Z,12.34
2023-01-05T17:00:28.052Z,11.62
2023-01-05T17:02:55.869Z,11.80
2023-01-05T17:05:23.889Z,11.93
2023-01-05T17:07:55.084Z,11.97
2023-01-05T17:10:24.178Z,11.78
2023-01-05T17:12:55.904Z,11.59
2023-01-05T17:15:24.072Z,11.81
2023-01-05T17:17:54.373Z,11.52
2023-01-05T17:20:22.901Z,11.47
2023-01-05T17:22:50.690Z,11.53
2023-01-05T17:25:17.954Z,11.62
2023-01-05T17:27:46.313Z,11.76
2023-01-05T17:30:20.832Z,11.69
2023-01-05T17:32:48.125Z,11.58
2023-01-05T17:35:18.494Z,11.70
2023-01-05T17:37:47.325Z,11.56
2023-01-05T17:40:17.188Z,11.61
2023-01-05T17:42:44.958Z,11.78
2023-01-05T17:45:13.339Z,11.57
2023-01-05T17:47:40.593Z,11.43
2023-01-05T17:50:08.371Z,11.61
2023-01-05T17:52:35.627Z,11.92
2023-01-05T17:55:02.821Z,11.65
2023-01-05T17:57:30.300Z,11.56
2023-01-05T17:59:57.453Z,11.17
2023-01-05T18:02:25.027Z,11.52
2023-01-05T18:04:52.487Z,11.30
2023-01-05T18:07:19.919Z,11.55
2023-01-05T18:09:47.206Z,11.00
2023-01-05T18:12:14.705Z,11.26
2023-01-05T18:14:43.663Z,11.17
2023-01-05T18:17:10.945Z,10.93
2023-01-05T18:19:38.547Z,11.25
2023-01-05T18:22:06.164Z,10.99
2023-01-05T18:24:33.430Z,11.50
2023-01-05T18:27:00.896Z,11.37
2023-01-05T18:29:28.146Z,11.35
2023-01-05T18:31:55.511Z,11.12
2023-01-05T18:34:23.141Z,11.29
2023-01-05T18:36:55.727Z,11.27
2023-01-05T18:39:29.775Z,11.27
2023-01-05T18:41:57.051Z,11.52
2023-01-05T18:44:24.405Z,11.26
2023-01-05T18:46:51.943Z,10.80
2023-01-05T18:49:19.156Z,11.34
2023-01-05T18:51:46.424Z,11.21
2023-01-05T18:54:13.975Z,11.22
2023-01-05T18:56:41.355Z,10.96
2023-01-05T18:59:08.980Z,11.14
2023-01-05T19:01:40.171Z,11.14
2023-01-05T19:04:07.378Z,10.83
2023-01-05T19:06:34.598Z,10.81
2023-01-05T19:09:03.222Z,11.00
2023-01-05T19:11:30.459Z,11.11
2023-01-05T19:13:58.564Z,10.85
2023-01-05T19:16:27.709Z,11.01
2023-01-05T19:18:55.813Z,10.93
2023-01-05T19:21:23.681Z,10.99
2023-01-05T19:23:56.429Z,10.96
2023-01-05T19:26:24.143Z,11.08
2023-01-05T19:28:51.717Z,10.95
2023-01-05T19:31:19.193Z,11.40
2023-01-05T19:33:46.410Z,10.70
2023-01-05T19:36:15.167Z,11.08
2023-01-05T19:38:42.847Z,11.24
2023-01-05T19:41:11.576Z,11.15
2023-01-05T19:43:41.936Z,11.30
2023-01-05T19:46:13.067Z,11.16
2023-01-05T19:48:42.002Z,11.19
2023-01-05T19:51:10.768Z,10.86
2023-01-05T19:53:38.704Z,11.23
2023-01-05T19:56:06.862Z,10.97
2023-01-05T19:58:34.440Z,10.84
2023-01-05T20:01:11.814Z,10.93
2023-01-05T20:03:39.987Z,10.90
2023-01-05T20:06:08.341Z,10.83
2023-01-05T20:08:35.686Z,11.01
2023-01-05T20:11:06.912Z,11.15
2023-01-05T20:13:34.418Z,11.03
2023-01-05T20:16:11.628Z,10.87
2023-01-05T20:18:39.273Z,10.84
2023-01-05T20:21:07.371Z,10.58
2023-01-05T20:23:37.526Z,10.88
2023-01-05T20:26:05.408Z,10.95
2023-01-05T20:28:32.683Z,10.81
2023-01-05T20:31:00.053Z,10.68
2023-01-05T20:33:27.971Z,10.61
2023-01-05T20:35:55.248Z,10.72
2023-01-05T20:38:22.406Z,10.58
2023-01-05T20:40:50.146Z,11.04
2023-01-05T20:43:17.501Z,10.89
2023-01-05T20:45:44.810Z,11.02
2023-01-05T20:48:12.703Z,10.90
2023-01-05T20:50:39.948Z,10.92
2023-01-05T20:53:07.180Z,10.67
2023-01-05T20:55:39.165Z,10.62
2023-01-05T20:58:06.484Z,11.05
2023-01-05T21:00:33.703Z,11.18
2023-01-05T21:03:01.250Z,10.49
2023-01-05T21:05:28.446Z,11.41
2023-01-05T21:07:55.655Z,11.65
2023-01-05T21:10:23.118Z,11.74
2023-01-05T21:12:50.594Z,10.93
2023-01-05T21:15:17.880Z,11.06
2023-01-05T21:17:45.457Z,10.88
2023-01-05T21:20:12.695Z,10.94
2023-01-05T21:22:39.875Z,10.44
2023-01-05T21:25:07.434Z,11.20
2023-01-05T21:27:35.292Z,10.52
2023-01-05T21:30:02.488Z,10.59
2023-01-05T21:32:29.952Z,10.62
2023-01-05T21:34:57.215Z,10.85
2023-01-05T21:37:24.411Z,11.00
2023-01-05T21:39:51.852Z,11.25
2023-01-05T21:42:37.802Z,11.07
2023-01-05T21:45:05.483Z,10.82
2023-01-05T21:47:32.672Z,10.48
2023-01-05T21:49:59.883Z,10.81
2023-01-05T21:52:46.168Z,10.50
2023-01-05T21:55:31.822Z,10.79
2023-01-05T21:57:59.381Z,10.88
2023-01-05T22:00:27.213Z,10.75
2023-01-05T22:02:54.737Z,10.72
2023-01-05T22:05:21.910Z,11.31
2023-01-05T22:07:49.107Z,10.91
2023-01-05T22:10:16.686Z,10.82
2023-01-05T22:12:43.882Z,10.57
2023-01-05T22:15:11.369Z,10.47
2023-01-05T22:17:39.096Z,10.44
2023-01-05T22:20:07.025Z,10.40
2023-01-05T22:22:34.222Z,11.03
2023-01-05T22:25:01.691Z,10.47
2023-01-05T22:27:29.169Z,10.44
2023-01-05T22:29:56.450Z,10.06
2023-01-05T22:32:23.899Z,10.38
2023-01-05T22:34:51.117Z,10.10
2023-01-05T22:37:18.320Z,10.34
2023-01-05T22:39:45.819Z,10.50
2023-01-05T22:42:13.089Z,10.96
2023-01-05T22:44:40.269Z,10.62
2023-01-05T22:47:07.782Z,10.38
2023-01-05T22:49:35.173Z,10.76
2023-01-05T22:52:03.205Z,10.85
2023-01-05T22:54:31.639Z,11.06
2023-01-05T22:56:58.792Z,11.13
2023-01-05T22:59:27.842Z,11.22
2023-01-05T23:01:56.052Z,11.41
2023-01-05T23:04:23.332Z,12.29
2023-01-05T23:06:50.510Z,12.31
2023-01-05T23:09:18.210Z,12.63
2023-01-05T23:11:46.432Z,12.82
2023-01-05T23:14:13.971Z,12.53
2023-01-05T23:16:41.513Z,12.80
2023-01-05T23:19:09.264Z,12.53
2023-01-05T23:21:36.515Z,12.16
2023-01-05T23:24:04.081Z,12.54
2023-01-05T23:26:31.290Z,12.45
2023-01-05T23:28:58.675Z,11.85
2023-01-05T23:31:26.262Z,12.44
2023-01-05T23:33:53.462Z,12.30
2023-01-05T23:36:21.390Z,12.43
2023-01-05T23:38:48.896Z,12.12
2023-01-05T23:41:16.387Z,11.67
2023-01-05T23:43:45.159Z,11.84
2023-01-05T23:46:16.946Z,12.11
2023-01-05T23:48:44.267Z,11.86
2023-01-05T23:51:13.417Z,12.18
2023-01-05T23:53:41.611Z,12.12
2023-01-05T23:56:10.137Z,12.07
2023-01-05T23:58:37.453Z,12.31
